LVI weather

Livingstone Airport
Livingstone, Southern Province, Zambia

Public forecast

Using degrees Celsius for public forecast. Weather courtesy of forecast.io.

METAR (pilot weather report)

Report is more than 6 hours old.

Retrieved 2015/04/19 15:25 UTC (4 years ago):

FLLI 191525Z 07009KT 9999 TS FEW035CB SCT030 TEMPO 12015G20KT 7000 TS

TAF (pilot weather forecast)

Forecast is more than 12 hours old.

Retrieved 2013/10/01 12:00 UTC (6 years ago):

TAF FLLI 011000Z 0112/0218 08013KT 9999 SCT026 BECMG 0200/0204 VRB02KT CAVOK